createdAt,value
2022-08-01T00:00:51.887Z,99832.16
2022-08-01T00:03:19.907Z,99829.13
2022-08-01T00:05:49.748Z,99820.44
2022-08-01T00:08:17.711Z,99823.16
2022-08-01T00:10:45.775Z,99825.03
2022-08-01T00:13:13.771Z,99832.16
2022-08-01T00:15:41.771Z,99836.78
2022-08-01T00:18:21.719Z,99826.94
2022-08-01T00:20:51.107Z,99835.13
2022-08-01T00:23:19.057Z,99834.31
2022-08-01T00:25:47.063Z,99821.78
2022-08-01T00:28:15.078Z,99827.25
2022-08-01T00:30:43.105Z,99820.97
2022-08-01T00:33:11.106Z,99825.59
2022-08-01T00:35:39.063Z,99824.50
2022-08-01T00:38:08.390Z,99824.75
2022-08-01T00:40:36.359Z,99828.31
2022-08-01T00:43:04.295Z,99824.75
2022-08-01T00:45:32.305Z,99820.41
2022-08-01T00:48:00.317Z,99822.03
2022-08-01T00:50:28.266Z,99830.22
2022-08-01T00:52:56.371Z,99818.75
2022-08-01T00:55:25.767Z,99819.84
2022-08-01T00:58:05.048Z,99826.13
2022-08-01T01:00:53.010Z,99813.59
2022-08-01T01:03:26.430Z,99816.56
2022-08-01T01:06:09.752Z,99823.94
2022-08-01T01:08:40.801Z,99831.31
2022-08-01T01:11:13.118Z,99822.31
2022-08-01T01:13:48.613Z,99823.38
2022-08-01T01:16:19.668Z,99828.84
2022-08-01T01:18:48.902Z,99823.69
2022-08-01T01:21:37.611Z,99827.22
2022-08-01T01:24:12.794Z,99817.38
2022-08-01T01:26:45.917Z,99823.94
2022-08-01T01:29:16.755Z,99823.13
2022-08-01T01:31:46.869Z,99813.03
2022-08-01T01:34:15.820Z,99815.75
2022-08-01T01:36:44.120Z,99813.03
2022-08-01T01:39:12.320Z,99820.41
2022-08-01T01:41:40.276Z,99820.41
2022-08-01T01:44:08.192Z,99816.00
2022-08-01T01:46:37.567Z,99816.84
2022-08-01T01:49:05.768Z,99810.56
2022-08-01T01:51:33.829Z,99801.56
2022-08-01T01:54:01.826Z,99804.03
2022-08-01T01:56:29.842Z,99810.56
2022-08-01T01:58:58.827Z,99797.22
2022-08-01T02:01:58.290Z,99792.59
2022-08-01T02:04:17.342Z,99799.13
2022-08-01T02:06:46.093Z,99800.22
2022-08-01T02:09:14.087Z,99794.75
2022-08-01T02:12:07.994Z,99804.84
2022-08-01T02:14:30.004Z,99804.03
2022-08-01T02:16:58.812Z,99799.38
2022-08-01T02:19:28.260Z,99802.41
2022-08-01T02:21:59.726Z,99807.84
2022-08-01T02:24:31.156Z,99795.31
2022-08-01T02:27:00.273Z,99792.88
2022-08-01T02:29:30.137Z,99793.69
2022-08-01T02:31:58.128Z,99802.09
2022-08-01T02:34:27.747Z,99796.66
2022-08-01T02:36:55.768Z,99808.38
2022-08-01T02:39:23.778Z,99799.63
2022-08-01T02:41:52.674Z,99805.09
2022-08-01T02:44:24.921Z,99800.72
2022-08-01T02:46:54.292Z,99803.72
2022-08-01T02:49:22.358Z,99802.88
2022-08-01T02:51:51.783Z,99809.16
2022-08-01T02:54:19.983Z,99805.59
2022-08-01T02:56:48.176Z,99802.88
2022-08-01T02:59:18.963Z,99803.97
2022-08-01T03:01:50.364Z,99807.50
2022-08-01T03:04:18.890Z,99810.25
2022-08-01T03:06:46.892Z,99811.06
2022-08-01T03:09:16.595Z,99809.44
2022-08-01T03:11:45.206Z,99817.59
2022-08-01T03:14:13.506Z,99811.34
2022-08-01T03:16:42.954Z,99815.97
2022-08-01T03:19:11.606Z,99807.81
2022-08-01T03:21:39.638Z,99817.03
2022-08-01T03:24:08.113Z,99812.41
2022-08-01T03:26:38.170Z,99815.41
2022-08-01T03:29:08.360Z,99814.31
2022-08-01T03:31:37.004Z,99819.25
2022-08-01T03:34:05.960Z,99813.78
2022-08-01T03:36:34.623Z,99815.69
2022-08-01T03:39:03.498Z,99812.13
2022-08-01T03:41:34.061Z,99812.13
2022-08-01T03:44:06.364Z,99812.13
2022-08-01T03:46:36.869Z,99808.84
2022-08-01T03:49:07.971Z,99814.31
2022-08-01T03:51:36.079Z,99810.50
2022-08-01T03:54:04.111Z,99809.13
2022-08-01T03:56:33.031Z,99813.50
2022-08-01T03:59:01.213Z,99813.78
2022-08-01T04:01:30.766Z,99808.31
2022-08-01T04:03:59.480Z,99809.69
2022-08-01T04:06:27.488Z,99806.66
2022-08-01T04:08:58.462Z,99805.03
2022-08-01T04:11:26.999Z,99805.03
2022-08-01T04:13:55.345Z,99810.50
2022-08-01T04:16:23.461Z,99810.50
2022-08-01T04:18:52.814Z,99807.78
2022-08-01T04:21:23.718Z,99807.78
2022-08-01T04:23:52.623Z,99806.66
2022-08-01T04:26:21.797Z,99807.78
2022-08-01T04:28:51.001Z,99809.41
2022-08-01T04:31:19.102Z,99806.66
2022-08-01T04:33:50.727Z,99806.66
2022-08-01T04:36:20.592Z,99811.06
2022-08-01T04:38:51.457Z,99820.03
2022-08-01T04:41:19.425Z,99818.13
2022-08-01T04:43:47.706Z,99819.75
2022-08-01T04:46:15.981Z,99812.41
2022-08-01T04:48:44.107Z,99821.41
2022-08-01T04:51:16.411Z,99820.31
2022-08-01T04:53:46.916Z,99823.84
2022-08-01T04:56:15.079Z,99833.41
2022-08-01T04:58:43.093Z,99826.88
2022-08-01T05:01:11.260Z,99821.94
2022-08-01T05:03:39.442Z,99827.41
2022-08-01T05:06:07.561Z,99832.59
2022-08-01T05:08:37.178Z,99835.31
2022-08-01T05:11:06.675Z,99829.06
2022-08-01T05:13:34.752Z,99832.59
2022-08-01T05:16:04.760Z,99835.31
2022-08-01T05:18:33.230Z,99832.84
2022-08-01T05:21:01.232Z,99831.22
2022-08-01T05:23:41.982Z,99839.66
2022-08-01T05:26:15.026Z,99828.22
2022-08-01T05:28:43.708Z,99835.59
2022-08-01T05:31:11.687Z,99841.56
2022-08-01T05:33:39.739Z,99843.47
2022-08-01T05:36:07.911Z,99838.03
2022-08-01T05:38:35.829Z,99839.94
2022-08-01T05:41:03.830Z,99837.22
2022-08-01T05:43:33.224Z,99843.47
2022-08-01T05:46:02.028Z,99844.28
2022-08-01T05:48:30.132Z,99852.47
2022-08-01T05:50:59.027Z,99853.28
2022-08-01T05:53:27.284Z,99847.84
2022-08-01T05:55:55.343Z,99848.94
2022-08-01T05:58:23.338Z,99849.75
2022-08-01T06:00:52.669Z,99845.94
2022-08-01T06:03:20.722Z,99844.03
2022-08-01T06:05:48.761Z,99845.94
2022-08-01T06:08:16.759Z,99853.03
2022-08-01T06:10:44.789Z,99842.13
2022-08-01T06:13:12.781Z,99844.84
2022-08-01T06:15:40.822Z,99848.38
2022-08-01T06:18:10.187Z,99848.38
2022-08-01T06:20:38.233Z,99846.75
2022-08-01T06:23:32.333Z,99847.56
2022-08-01T06:25:54.621Z,99853.84
2022-08-01T06:28:22.689Z,99845.94
2022-08-01T06:30:50.724Z,99849.50
2022-08-01T06:33:20.124Z,99848.38
2022-08-01T06:35:48.097Z,99850.28
2022-08-01T06:38:16.121Z,99851.13
2022-08-01T06:40:44.124Z,99848.38
2022-08-01T06:43:12.748Z,99844.84
2022-08-01T06:45:40.941Z,99851.13
2022-08-01T06:48:08.891Z,99851.94
2022-08-01T06:50:38.378Z,99848.38
2022-08-01T06:53:06.351Z,99848.13
2022-08-01T06:55:34.352Z,99853.59
2022-08-01T06:58:02.407Z,99848.13
2022-08-01T07:00:30.402Z,99850.84
2022-08-01T07:02:59.545Z,99848.13
2022-08-01T07:05:27.629Z,99841.59
2022-08-01T07:07:57.070Z,99852.47
2022-08-01T07:10:25.090Z,99851.66
2022-08-01T07:12:53.113Z,99854.41
2022-08-01T07:15:27.504Z,99852.47
2022-08-01T07:17:55.585Z,99851.66
2022-08-01T07:20:23.605Z,99854.41
2022-08-01T07:22:51.627Z,99857.94
2022-08-01T07:25:20.970Z,99851.41
2022-08-01T07:27:49.021Z,99852.47
2022-08-01T07:30:17.068Z,99848.69
2022-08-01T07:32:45.111Z,99860.41
2022-08-01T07:35:13.161Z,99856.59
2022-08-01T07:37:46.148Z,99846.78
2022-08-01T07:40:17.737Z,99842.16
2022-08-01T07:42:47.349Z,99851.97
2022-08-01T07:45:15.410Z,99854.69
2022-08-01T07:47:43.461Z,99853.63
2022-08-01T07:50:11.600Z,99841.06
2022-08-01T07:52:39.623Z,99848.19
2022-08-01T07:55:09.125Z,99848.19
2022-08-01T07:57:37.151Z,99844.34
2022-08-01T08:00:07.755Z,99852.53
2022-08-01T08:02:35.723Z,99850.63
2022-08-01T08:05:04.857Z,99848.75
2022-08-01T08:07:33.657Z,99845.16
2022-08-01T08:10:01.695Z,99847.63
2022-08-01T08:12:30.000Z,99842.19
2022-08-01T08:14:59.407Z,99842.19
2022-08-01T08:17:28.975Z,99846.81
2022-08-01T08:20:04.089Z,99847.63
2022-08-01T08:22:34.669Z,99846.53
2022-08-01T08:25:03.398Z,99846.53
2022-08-01T08:27:31.362Z,99856.38
2022-08-01T08:29:59.396Z,99849.25
2022-08-01T08:32:28.909Z,99847.63
2022-08-01T08:34:57.101Z,99848.19
2022-08-01T08:37:25.051Z,99853.66
2022-08-01T08:39:59.418Z,99849.00
2022-08-01T08:42:27.440Z,99852.53
2022-08-01T08:44:56.291Z,99849.00
2022-08-01T08:47:24.603Z,99842.47
2022-08-01T08:49:55.706Z,99847.09
2022-08-01T08:52:23.805Z,99847.09
2022-08-01T08:54:52.408Z,99843.56
2022-08-01T08:57:21.402Z,99841.63
2022-08-01T08:59:49.508Z,99852.53
2022-08-01T09:02:17.505Z,99845.19
2022-08-01T09:04:45.518Z,99847.09
2022-08-01T09:07:15.419Z,99855.28
2022-08-01T09:09:43.873Z,99850.91
2022-08-01T09:12:12.234Z,99841.63
2022-08-01T09:14:46.805Z,99841.63
2022-08-01T09:17:14.548Z,99840.00
2022-08-01T09:19:43.289Z,99840.00
2022-08-01T09:22:12.859Z,99838.09
2022-08-01T09:24:42.501Z,99837.00
2022-08-01T09:27:21.664Z,99828.00
2022-08-01T09:30:00.673Z,99829.63
2022-08-01T09:32:35.944Z,99824.19
2022-08-01T09:35:24.483Z,99826.66
2022-08-01T09:38:15.746Z,99826.66
2022-08-01T09:40:49.409Z,99831.28
2022-08-01T09:43:17.680Z,99823.13
2022-08-01T09:45:50.869Z,99829.38
2022-08-01T09:48:22.685Z,99819.28
2022-08-01T09:51:04.367Z,99816.84
2022-08-01T09:53:50.832Z,99808.41
2022-08-01T09:56:21.537Z,99808.41
2022-08-01T09:59:00.044Z,99814.66
2022-08-01T10:01:36.261Z,99810.03
2022-08-01T10:04:11.112Z,99805.41
2022-08-01T10:06:39.901Z,99803.50
2022-08-01T10:09:09.610Z,99799.97
2022-08-01T10:11:40.239Z,99796.41
2022-08-01T10:14:08.670Z,99794.22
2022-08-01T10:16:37.188Z,99802.41
2022-08-01T10:19:11.300Z,99792.59
2022-08-01T10:21:57.807Z,99796.94
2022-08-01T10:24:27.520Z,99796.94
2022-08-01T10:27:00.855Z,99803.25
2022-08-01T10:29:45.625Z,99793.97
2022-08-01T10:35:15.832Z,99790.41
2022-08-01T10:37:51.875Z,99787.69
2022-08-01T10:40:30.396Z,99778.41
2022-08-01T10:43:00.161Z,99778.41
2022-08-01T10:45:30.593Z,99773.78
2022-08-01T10:48:01.994Z,99780.88
2022-08-01T10:50:32.551Z,99780.06
2022-08-01T10:53:16.280Z,99778.97
2022-08-01T10:55:52.404Z,99788.78
2022-08-01T10:58:25.856Z,99783.31
2022-08-01T11:01:18.167Z,99784.16
2022-08-01T11:04:01.176Z,99784.16
2022-08-01T11:06:37.536Z,99778.72
2022-08-01T11:09:07.125Z,99781.16
2022-08-01T11:11:37.616Z,99778.44
2022-08-01T11:14:10.672Z,99775.69
2022-08-01T11:16:41.107Z,99783.63
2022-08-01T11:19:09.855Z,99780.09
2022-08-01T11:22:01.663Z,99775.44
2022-08-01T11:25:01.208Z,99768.88
2022-08-01T11:27:31.478Z,99775.97
2022-08-01T11:30:28.280Z,99766.16
2022-08-01T11:33:12.540Z,99766.44
2022-08-01T11:36:55.909Z,99761.53
2022-08-01T11:39:20.442Z,99764.25
2022-08-01T11:41:49.336Z,99766.97
2022-08-01T11:44:24.994Z,99750.63
2022-08-01T11:47:07.128Z,99744.09
2022-08-01T11:49:49.937Z,99759.34
2022-08-01T11:52:18.994Z,99747.88
2022-08-01T11:54:49.413Z,99749.53
2022-08-01T11:57:19.917Z,99748.44
2022-08-01T12:00:02.541Z,99744.63
2022-08-01T12:02:34.943Z,99744.34
2022-08-01T12:05:03.794Z,99743.53
2022-08-01T12:07:35.887Z,99743.53
2022-08-01T12:10:05.972Z,99735.06
2022-08-01T12:12:34.604Z,99734.25
2022-08-01T12:15:03.601Z,99728.81
2022-08-01T12:17:33.992Z,99725.28
2022-08-01T12:20:02.070Z,99718.72
2022-08-01T12:22:30.046Z,99719.56
2022-08-01T12:24:58.224Z,99715.72
2022-08-01T12:27:29.842Z,99724.72
2022-08-01T12:29:57.967Z,99731.81
2022-08-01T12:32:35.427Z,99729.34
2022-08-01T12:35:19.366Z,99725.28
2022-08-01T12:37:48.124Z,99719.00
2022-08-01T12:40:17.235Z,99719.00
2022-08-01T12:42:46.475Z,99712.75
2022-08-01T12:45:15.496Z,99715.47
2022-08-01T12:47:43.453Z,99707.28
2022-08-01T12:50:15.789Z,99706.44
2022-08-01T12:52:45.255Z,99705.38
2022-08-01T12:55:14.912Z,99697.19
2022-08-01T12:57:45.795Z,99697.19
2022-08-01T13:00:19.349Z,99691.44
2022-08-01T13:02:47.634Z,99687.91
2022-08-01T13:05:15.947Z,99684.09
2022-08-01T13:07:50.040Z,99690.63
2022-08-01T13:10:26.018Z,99696.09
2022-08-01T13:12:55.108Z,99684.09
2022-08-01T13:15:25.506Z,99686.53
2022-08-01T13:17:54.001Z,99677.56
2022-08-01T13:20:32.812Z,99676.44
2022-08-01T13:23:15.438Z,99683.56
2022-08-01T13:25:54.019Z,99673.72
2022-08-01T13:28:25.803Z,99683.25
2022-08-01T13:30:59.139Z,99680.53
2022-08-01T13:33:27.546Z,99677.00
2022-08-01T13:35:58.550Z,99681.34
2022-08-01T13:38:45.748Z,99679.47
2022-08-01T13:41:14.459Z,99674.28
2022-08-01T13:43:58.919Z,99679.47
2022-08-01T13:46:29.519Z,99686.78
2022-08-01T13:48:57.808Z,99680.28
2022-08-01T13:51:33.216Z,99676.72
2022-08-01T13:54:02.642Z,99675.91
2022-08-01T13:56:30.794Z,99676.44
2022-08-01T13:58:58.805Z,99672.09
2022-08-01T14:01:29.980Z,99678.34
2022-08-01T14:04:01.885Z,99674.00
2022-08-01T14:06:29.911Z,99670.44
2022-08-01T14:08:57.930Z,99666.91
2022-08-01T14:11:30.428Z,99665.81
2022-08-01T14:14:05.089Z,99667.44
2022-08-01T14:16:38.515Z,99664.72
2022-08-01T14:19:06.523Z,99661.72
2022-08-01T14:21:34.554Z,99667.19
2022-08-01T14:24:02.524Z,99663.63
2022-08-01T14:26:31.914Z,99651.91
2022-08-01T14:28:59.932Z,99667.19
2022-08-01T14:31:32.159Z,99665.28
2022-08-01T14:34:01.986Z,99656.28
2022-08-01T14:36:31.812Z,99660.63
2022-08-01T14:39:06.217Z,99670.44
2022-08-01T14:41:36.117Z,99660.63
2022-08-01T14:44:05.129Z,99664.97
2022-08-01T14:46:34.003Z,99657.63
2022-08-01T14:49:02.325Z,99663.91
2022-08-01T14:51:34.061Z,99661.19
2022-08-01T14:54:02.070Z,99662.78
2022-08-01T14:56:32.008Z,99658.44
2022-08-01T14:59:01.390Z,99660.06
2022-08-01T15:01:29.456Z,99662.00
2022-08-01T15:03:57.533Z,99660.38
2022-08-01T15:06:25.499Z,99666.63
2022-08-01T15:08:53.557Z,99653.00
2022-08-01T15:11:21.568Z,99655.97
2022-08-01T15:14:10.340Z,99663.34
2022-08-01T15:16:39.739Z,99666.09
2022-08-01T15:19:07.812Z,99662.25
2022-08-01T15:21:41.648Z,99659.81
2022-08-01T15:24:11.281Z,99660.63
2022-08-01T15:26:39.317Z,99672.34
2022-08-01T15:29:07.617Z,99664.97
2022-08-01T15:31:39.224Z,99660.63
2022-08-01T15:34:07.194Z,99655.19
2022-08-01T15:36:35.212Z,99652.44
2022-08-01T15:39:03.196Z,99651.63
2022-08-01T15:41:31.093Z,99653.25
2022-08-01T15:43:59.046Z,99651.34
2022-08-01T15:46:27.470Z,99649.72
2022-08-01T15:48:56.891Z,99648.38
2022-08-01T15:51:24.914Z,99644.25
2022-08-01T15:53:52.891Z,99648.63
2022-08-01T15:56:20.897Z,99649.47
2022-08-01T15:58:48.912Z,99645.06
2022-08-01T16:01:17.181Z,99653.81
2022-08-01T16:03:45.124Z,99654.63
2022-08-01T16:06:14.521Z,99647.53
2022-08-01T16:08:43.903Z,99653.81
2022-08-01T16:11:11.952Z,99650.28
2022-08-01T16:13:42.948Z,99653.00
2022-08-01T16:16:11.064Z,99654.63
2022-08-01T16:18:39.078Z,99660.06
2022-08-01T16:21:07.858Z,99659.25
2022-08-01T16:23:37.264Z,99662.00
2022-08-01T16:26:05.303Z,99653.00
2022-08-01T16:28:54.100Z,99664.16
2022-08-01T16:31:50.144Z,99655.19
2022-08-01T16:34:10.217Z,99657.09
2022-08-01T16:36:41.834Z,99655.19
2022-08-01T16:39:11.509Z,99656.28
2022-08-01T16:41:39.609Z,99656.78
2022-08-01T16:44:07.588Z,99642.66
2022-08-01T16:46:35.573Z,99641.81
2022-08-01T16:49:03.663Z,99649.72
2022-08-01T16:51:32.714Z,99648.63
2022-08-01T16:54:00.956Z,99648.09
2022-08-01T16:56:30.389Z,99650.81
2022-08-01T16:58:58.426Z,99647.25
2022-08-01T17:01:59.032Z,99639.06
2022-08-01T17:04:16.308Z,99646.19
2022-08-01T17:06:45.779Z,99648.09
2022-08-01T17:09:13.769Z,99648.91
2022-08-01T17:11:43.224Z,99647.81
2022-08-01T17:14:11.260Z,99645.38
2022-08-01T17:16:39.326Z,99651.34
2022-08-01T17:19:07.478Z,99648.91
2022-08-01T17:21:36.419Z,99653.56
2022-08-01T17:24:07.401Z,99651.63
2022-08-01T17:26:35.721Z,99655.19
2022-08-01T17:29:05.078Z,99651.34
2022-08-01T17:31:33.107Z,99651.34
2022-08-01T17:34:01.236Z,99650.53
2022-08-01T17:36:29.255Z,99655.72
2022-08-01T17:38:57.277Z,99655.97
2022-08-01T17:41:25.323Z,99659.00
2022-08-01T17:43:53.307Z,99657.34
2022-08-01T17:46:22.811Z,99654.63
2022-08-01T17:48:50.855Z,99654.91
2022-08-01T17:51:22.690Z,99656.53
2022-08-01T17:53:55.791Z,99661.19
2022-08-01T17:56:26.028Z,99667.44
2022-08-01T17:58:54.062Z,99667.44
2022-08-01T18:01:27.047Z,99661.19
2022-08-01T18:03:55.696Z,99665.81
2022-08-01T18:06:25.782Z,99665.81
2022-08-01T18:08:56.132Z,99668.56
2022-08-01T18:11:27.431Z,99676.72
2022-08-01T18:13:56.688Z,99671.28
2022-08-01T18:16:27.485Z,99674.81
2022-08-01T18:18:56.091Z,99677.53
2022-08-01T18:21:24.167Z,99686.78
2022-08-01T18:23:52.517Z,99685.72
2022-08-01T18:26:21.725Z,99693.63
2022-08-01T18:28:50.783Z,99703.72
2022-08-01T18:31:20.803Z,99702.91
2022-08-01T18:33:50.341Z,99694.72
2022-08-01T18:36:32.230Z,99699.34
2022-08-01T18:39:04.249Z,99714.91
2022-08-01T18:41:33.969Z,99707.53
2022-08-01T18:44:05.378Z,99713.56
2022-08-01T18:46:36.865Z,99720.38
2022-08-01T18:49:06.440Z,99720.34
2022-08-01T18:51:34.415Z,99727.47
2022-08-01T18:54:02.418Z,99731.78
2022-08-01T18:56:30.410Z,99729.59
2022-08-01T18:58:58.337Z,99738.06
2022-08-01T19:01:29.970Z,99731.00
2022-08-01T19:04:01.966Z,99742.97
2022-08-01T19:06:35.630Z,99733.44
2022-08-01T19:09:07.726Z,99746.81
2022-08-01T19:11:37.831Z,99738.91
2022-08-01T19:14:06.835Z,99746.25
2022-08-01T19:16:35.129Z,99749.25
2022-08-01T19:19:05.436Z,99744.63
2022-08-01T19:21:37.754Z,99754.66
2022-08-01T19:24:23.417Z,99757.63
2022-08-01T19:26:52.950Z,99764.41
2022-08-01T19:29:21.622Z,99768.78
2022-08-01T19:31:49.987Z,99769.31
2022-08-01T19:34:18.286Z,99781.56
2022-08-01T19:36:48.651Z,99780.47
2022-08-01T19:39:17.120Z,99781.78
2022-08-01T19:41:46.400Z,99781.50
2022-08-01T19:44:15.029Z,99783.63
2022-08-01T19:46:43.251Z,99792.56
2022-08-01T19:49:13.100Z,99789.56
2022-08-01T19:51:43.624Z,99784.41
2022-08-01T19:54:14.073Z,99792.78
2022-08-01T19:56:44.656Z,99799.34
2022-08-01T19:59:16.156Z,99798.19
2022-08-01T20:01:44.668Z,99799.25
2022-08-01T20:04:12.694Z,99811.22
2022-08-01T20:06:40.707Z,99802.00
2022-08-01T20:09:09.218Z,99803.91
2022-08-01T20:11:38.596Z,99809.34
2022-08-01T20:14:06.614Z,99806.31
2022-08-01T20:16:34.632Z,99809.28
2022-08-01T20:19:02.607Z,99805.19
2022-08-01T20:21:30.588Z,99815.25
2022-08-01T20:24:02.439Z,99813.81
2022-08-01T20:26:31.533Z,99810.00
2022-08-01T20:29:00.957Z,99811.34
2022-08-01T20:31:30.638Z,99804.50
2022-08-01T20:34:15.624Z,99803.34
2022-08-01T20:36:48.072Z,99806.06
2022-08-01T20:39:24.934Z,99811.84
2022-08-01T20:42:00.247Z,99821.47
2022-08-01T20:44:32.533Z,99817.72
2022-08-01T20:47:01.177Z,99817.22
2022-08-01T20:49:29.283Z,99815.91
2022-08-01T20:51:57.436Z,99817.56
2022-08-01T20:54:26.735Z,99821.13
2022-08-01T20:56:58.572Z,99821.16
2022-08-01T20:59:55.587Z,99816.88
2022-08-01T21:02:30.103Z,99823.44
2022-08-01T21:04:59.864Z,99820.72
2022-08-01T21:07:28.602Z,99817.72
2022-08-01T21:10:02.828Z,99810.94
2022-08-01T21:12:35.610Z,99819.78
2022-08-01T21:15:05.474Z,99812.28
2022-08-01T21:17:39.684Z,99818.13
2022-08-01T21:20:08.688Z,99822.44
2022-08-01T21:22:38.425Z,99816.38
2022-08-01T21:25:08.094Z,99820.19
2022-08-01T21:27:37.389Z,99817.72
2022-08-01T21:30:08.434Z,99819.31
2022-08-01T21:32:37.611Z,99815.47
2022-08-01T21:35:15.855Z,99812.44
2022-08-01T21:37:52.304Z,99817.53
2022-08-01T21:40:22.840Z,99811.84
2022-08-01T21:42:52.448Z,99818.34
2022-08-01T21:45:23.776Z,99813.44
2022-08-01T21:47:52.987Z,99818.88
2022-08-01T21:50:22.206Z,99817.25
2022-08-01T21:52:51.144Z,99818.28
2022-08-01T21:55:34.913Z,99819.91
2022-08-01T21:58:14.780Z,99821.97
2022-08-01T22:00:46.280Z,99816.75
2022-08-01T22:03:23.761Z,99819.16
2022-08-01T22:05:53.988Z,99822.72
2022-08-01T22:08:28.255Z,99820.00
2022-08-01T22:10:59.814Z,99821.88
2022-08-01T22:13:27.795Z,99816.63
2022-08-01T22:15:59.005Z,99818.00
2022-08-01T22:18:28.629Z,99822.88
2022-08-01T22:20:58.077Z,99814.22
2022-08-01T22:23:27.404Z,99817.19
2022-08-01T22:25:56.760Z,99821.53
2022-08-01T22:28:25.960Z,99819.34
2022-08-01T22:30:55.349Z,99823.97
2022-08-01T22:33:28.058Z,99826.69
2022-08-01T22:35:57.655Z,99818.47
2022-08-01T22:38:27.439Z,99818.34
2022-08-01T22:41:00.320Z,99822.28
2022-08-01T22:43:31.408Z,99815.97
2022-08-01T22:46:11.720Z,99817.66
2022-08-01T22:48:45.745Z,99819.56
2022-08-01T22:51:31.564Z,99818.75
2022-08-01T22:54:04.968Z,99821.41
2022-08-01T22:56:34.706Z,99821.09
2022-08-01T22:59:03.979Z,99811.56
2022-08-01T23:01:33.050Z,99810.13
2022-08-01T23:04:02.452Z,99809.78
2022-08-01T23:06:36.289Z,99811.13
2022-08-01T23:09:05.538Z,99816.22
2022-08-01T23:11:36.375Z,99808.91
2022-08-01T23:14:05.068Z,99818.13
2022-08-01T23:16:36.772Z,99820.50
2022-08-01T23:19:07.358Z,99819.94
2022-08-01T23:21:41.356Z,99821.00
2022-08-01T23:24:13.604Z,99817.88
2022-08-01T23:26:43.564Z,99817.88
2022-08-01T23:29:12.953Z,99824.44
2022-08-01T23:32:03.281Z,99826.06
2022-08-01T23:34:34.294Z,99816.59
2022-08-01T23:37:02.295Z,99821.22
2022-08-01T23:39:31.568Z,99824.25
2022-08-01T23:42:05.436Z,99824.00
2022-08-01T23:44:36.825Z,99826.34
2022-08-01T23:47:06.372Z,99822.31
2022-08-01T23:49:53.221Z,99813.59
2022-08-01T23:52:23.745Z,99816.88
2022-08-01T23:55:11.517Z,99818.19
2022-08-01T23:57:44.960Z,99824.69
